KTOP/TOP METAR and TAF weather

Enter ICAO airport designator
Station Type Date Time Source
KTOP METAR 2021/09/16 10:53 UTC NOAA

KTOP 161053Z AUTO 13004KT 10SM CLR 17/14 A2995 RMK AO2 SLP135 T01720144


Station Type Date Time Source
KTOP Decoded METAR 2021/09/16 10:53 UTC NOAA

TOPEKA BILLARD MUNICIPAL AIRPORT, KS, United States (KTOP) 39-04N 95-38W 268M
Sep 16, 2021 - 06:53 AM EDT / 2021.09.16 1053 UTC
Wind: from the SE (130 degrees) at 5 MPH (4 KT):0
Visibility: 10 mile(s):0
Sky conditions: clear
Temperature: 63.0 F (17.2 C)
Dew Point: 57.9 F (14.4 C)
Relative Humidity: 83%
Pressure (altimeter): 29.95 in. Hg (1014 hPa)
ob: KTOP 161053Z AUTO 13004KT 10SM CLR 17/14 A2995 RMK AO2 SLP135 T01720144
cycle: 11

Station Type Date Time Source
KTOP TAF 2021/09/16 12:22 UTC NOAA

TAF KTOP 161120Z 1612/1712 16008KT P6SM SKC

Example: see airport list